Time;durP1;ratioP1;P1;durP2;ratioP2;P2;SDS_P1;SDS_P2;PMS_P1;PMS_P2;Temp;Humidity;BMP_temperature;BMP_pressure;BME280_temperature;BME280_humidity;BME280_pressure;Samples;Min_cycle;Max_cycle;Signal;HPM_P1;HPM_P2
2023/06/22 00:00:27;;;;;;;;;;;23.20;71.80;;;;;;5011786;28;87263;-44
2023/06/22 00:02:53;;;;;;;;;;;23.20;71.80;;;;;;5011837;28;87001;-46
2023/06/22 00:05:18;;;;;;;;;;;23.20;71.70;;;;;;5016822;28;88106;-45
2023/06/22 00:07:43;;;;;;;;;;;23.10;71.70;;;;;;5013949;28;88025;-44
2023/06/22 00:10:09;;;;;;;;;;;23.10;71.80;;;;;;5011993;28;88145;-45
2023/06/22 00:12:34;;;;;;;;;;;23.20;71.80;;;;;;5014370;28;87101;-44
2023/06/22 00:15:00;;;;;;;;;;;23.10;71.70;;;;;;5004841;28;87731;-44
2023/06/22 00:17:25;;;;;;;;;;;23.10;71.90;;;;;;5014321;28;88212;-45
2023/06/22 00:19:53;;;;;;;;;;;23.10;71.70;;;;;;5012661;28;87134;-44
2023/06/22 00:22:27;;;;;;;;;;;23.10;71.80;;;;;;5011386;28;91289;-44
2023/06/22 00:24:54;;;;;;;;;;;23.10;71.70;;;;;;5008770;28;88841;-44
2023/06/22 00:27:19;;;;;;;;;;;23.10;71.80;;;;;;5015450;28;87009;-45
2023/06/22 00:29:45;;;;;;;;;;;23.00;71.60;;;;;;5007495;28;88181;-44
2023/06/22 00:32:10;;;;;;;;;;;23.00;71.80;;;;;;5011453;28;87981;-44
2023/06/22 00:34:35;;;;;;;;;;;23.00;71.70;;;;;;5012783;28;87349;-45
2023/06/22 00:37:02;;;;;;;;;;;23.00;71.70;;;;;;5013346;28;88766;-46
2023/06/22 00:39:27;;;;;;;;;;;23.00;71.80;;;;;;5011118;28;87123;-44
2023/06/22 00:41:53;;;;;;;;;;;23.00;71.70;;;;;;5012097;28;87364;-44
2023/06/22 00:44:18;;;;;;;;;;;23.00;71.70;;;;;;5013679;28;88306;-44
2023/06/22 00:46:44;;;;;;;;;;;22.90;71.70;;;;;;5010713;28;87246;-45
2023/06/22 00:49:09;;;;;;;;;;;22.90;71.80;;;;;;5015704;28;87576;-43
2023/06/22 00:51:37;;;;;;;;;;;22.90;71.80;;;;;;5011715;28;87235;-45
2023/06/22 00:54:05;;;;;;;;;;;22.90;71.70;;;;;;5008114;28;88764;-44
2023/06/22 00:56:31;;;;;;;;;;;22.80;71.80;;;;;;5011498;28;90404;-44
2023/06/22 00:58:59;;;;;;;;;;;22.90;71.80;;;;;;5014242;28;87018;-44
2023/06/22 01:01:24;;;;;;;;;;;22.80;71.70;;;;;;5006546;28;87923;-44
2023/06/22 01:03:50;;;;;;;;;;;22.80;71.80;;;;;;5012129;28;87483;-44
2023/06/22 01:06:20;;;;;;;;;;;22.80;71.80;;;;;;5013277;28;87265;-46
2023/06/22 01:08:51;;;;;;;;;;;22.70;71.80;;;;;;5011815;28;87422;-45
2023/06/22 01:11:17;;;;;;;;;;;22.70;71.80;;;;;;5013923;28;88030;-43
2023/06/22 01:13:50;;;;;;;;;;;22.70;71.90;;;;;;5013841;28;88802;-45
2023/06/22 01:16:22;;;;;;;;;;;22.70;71.90;;;;;;5004907;28;89605;-43
2023/06/22 01:18:50;;;;;;;;;;;22.70;71.80;;;;;;5009245;28;87139;-43
2023/06/22 01:21:18;;;;;;;;;;;22.70;71.90;;;;;;5010925;28;88052;-44
2023/06/22 01:23:59;;;;;;;;;;;22.70;72.00;;;;;;5007359;28;87425;-46
2023/06/22 01:26:38;;;;;;;;;;;22.60;71.90;;;;;;5011064;28;87200;-44
2023/06/22 01:29:05;;;;;;;;;;;22.70;72.00;;;;;;5010908;28;87538;-44
2023/06/22 01:31:32;;;;;;;;;;;22.60;71.90;;;;;;5008758;28;88053;-44
2023/06/22 01:34:01;;;;;;;;;;;22.60;71.90;;;;;;5015443;28;87220;-44
2023/06/22 01:36:27;;;;;;;;;;;22.60;71.90;;;;;;5010519;28;88207;-44
2023/06/22 01:38:52;;;;;;;;;;;22.50;71.80;;;;;;5013095;28;86300;-45
2023/06/22 01:41:19;;;;;;;;;;;22.50;72.00;;;;;;5006078;28;87262;-46
2023/06/22 01:43:45;;;;;;;;;;;22.50;72.00;;;;;;5012837;28;88056;-44
2023/06/22 01:46:11;;;;;;;;;;;22.50;72.00;;;;;;5005549;28;88149;-45
2023/06/22 01:48:38;;;;;;;;;;;22.50;72.00;;;;;;5011401;28;88455;-44
2023/06/22 01:51:03;;;;;;;;;;;22.50;72.00;;;;;;5013053;28;88139;-47
2023/06/22 01:53:29;;;;;;;;;;;22.40;71.80;;;;;;5014813;28;87124;-43
2023/06/22 01:55:55;;;;;;;;;;;22.50;71.90;;;;;;5011288;28;88858;-45
2023/06/22 01:58:22;;;;;;;;;;;22.40;71.90;;;;;;5013254;28;86987;-45
2023/06/22 02:00:56;;;;;;;;;;;22.40;72.00;;;;;;5007929;28;87360;-45
2023/06/22 02:03:32;;;;;;;;;;;22.40;71.90;;;;;;5013206;28;88928;-46
2023/06/22 02:06:21;;;;;;;;;;;22.40;71.80;;;;;;5012714;28;87124;-44
2023/06/22 02:08:48;;;;;;;;;;;22.40;72.00;;;;;;5009553;28;87838;-45
2023/06/22 02:11:15;;;;;;;;;;;22.40;72.00;;;;;;5009770;28;90352;-44
2023/06/22 02:13:43;;;;;;;;;;;22.30;71.80;;;;;;5011267;28;87066;-44
2023/06/22 02:16:12;;;;;;;;;;;22.30;71.90;;;;;;5010387;28;89044;-46
2023/06/22 02:18:40;;;;;;;;;;;22.30;71.90;;;;;;5012046;28;87335;-45
2023/06/22 02:21:05;;;;;;;;;;;22.30;71.90;;;;;;5012877;28;88942;-46
2023/06/22 02:23:34;;;;;;;;;;;22.20;72.10;;;;;;5006552;28;88028;-44
2023/06/22 02:26:00;;;;;;;;;;;22.20;71.90;;;;;;5014268;28;87201;-46
2023/06/22 02:28:26;;;;;;;;;;;22.20;71.90;;;;;;5017162;28;86446;-48
2023/06/22 02:30:51;;;;;;;;;;;22.20;72.00;;;;;;5013641;28;88252;-48
2023/06/22 02:33:17;;;;;;;;;;;22.20;72.00;;;;;;5011813;28;87188;-50
2023/06/22 02:35:45;;;;;;;;;;;22.20;71.90;;;;;;5016059;28;88061;-45
2023/06/22 02:38:11;;;;;;;;;;;22.10;72.00;;;;;;5016462;28;89306;-47
2023/06/22 02:40:36;;;;;;;;;;;22.10;72.00;;;;;;5014697;28;87500;-48
2023/06/22 02:43:02;;;;;;;;;;;22.10;72.00;;;;;;5016210;28;88095;-47
2023/06/22 02:45:28;;;;;;;;;;;22.10;72.00;;;;;;5012731;28;87125;-47
2023/06/22 02:47:54;;;;;;;;;;;22.10;71.90;;;;;;5013238;28;87402;-48
2023/06/22 02:50:20;;;;;;;;;;;22.10;71.90;;;;;;5013194;28;88598;-48
2023/06/22 02:52:45;;;;;;;;;;;22.00;71.90;;;;;;5016540;28;86376;-50
2023/06/22 02:55:11;;;;;;;;;;;22.00;72.00;;;;;;5015043;28;87007;-47
2023/06/22 02:57:36;;;;;;;;;;;22.00;72.00;;;;;;5013143;28;88589;-47
2023/06/22 03:00:03;;;;;;;;;;;22.00;72.10;;;;;;5018308;28;88556;-46
2023/06/22 03:02:28;;;;;;;;;;;21.90;72.00;;;;;;5011102;28;89471;-47
2023/06/22 03:04:54;;;;;;;;;;;21.90;72.10;;;;;;5010693;28;89011;-47
2023/06/22 03:07:20;;;;;;;;;;;22.00;72.00;;;;;;5012537;28;87407;-47
2023/06/22 03:09:46;;;;;;;;;;;21.90;72.00;;;;;;5012226;28;89327;-47
2023/06/22 03:12:11;;;;;;;;;;;21.90;72.00;;;;;;5013612;28;87841;-48
2023/06/22 03:14:38;;;;;;;;;;;21.90;72.00;;;;;;5016152;28;87374;-46
2023/06/22 03:17:04;;;;;;;;;;;21.90;72.00;;;;;;5000531;28;88761;-45
2023/06/22 03:19:31;;;;;;;;;;;21.80;72.00;;;;;;5011227;28;86983;-46
2023/06/22 03:21:57;;;;;;;;;;;21.90;72.00;;;;;;5018182;28;88908;-46
2023/06/22 03:24:23;;;;;;;;;;;21.90;71.90;;;;;;5011152;28;88113;-46
2023/06/22 03:26:48;;;;;;;;;;;21.80;72.00;;;;;;5007763;28;88380;-46
2023/06/22 03:29:14;;;;;;;;;;;21.80;72.00;;;;;;5008842;28;88042;-48
2023/06/22 03:31:39;;;;;;;;;;;21.80;72.00;;;;;;5013782;28;87894;-47
2023/06/22 03:34:05;;;;;;;;;;;21.80;72.00;;;;;;4998908;28;87705;-47
2023/06/22 03:36:30;;;;;;;;;;;21.80;72.00;;;;;;5005950;28;88088;-46
2023/06/22 03:38:56;;;;;;;;;;;21.80;72.00;;;;;;5008059;28;87898;-46
2023/06/22 03:41:21;;;;;;;;;;;21.80;72.00;;;;;;5016334;28;87528;-47
2023/06/22 03:43:47;;;;;;;;;;;21.70;72.00;;;;;;5009853;28;87259;-48
2023/06/22 03:46:13;;;;;;;;;;;21.70;72.00;;;;;;5004507;28;87295;-47
2023/06/22 03:48:38;;;;;;;;;;;21.70;72.00;;;;;;5008123;28;89269;-46
2023/06/22 03:51:04;;;;;;;;;;;21.70;71.90;;;;;;5015513;28;87111;-46
2023/06/22 03:53:29;;;;;;;;;;;21.70;72.00;;;;;;5005190;28;88540;-48
2023/06/22 03:55:55;;;;;;;;;;;21.70;72.00;;;;;;5004936;28;88590;-46
2023/06/22 03:58:21;;;;;;;;;;;21.60;72.00;;;;;;5011031;28;87653;-46
2023/06/22 04:00:47;;;;;;;;;;;21.60;72.00;;;;;;5015475;28;87387;-46
2023/06/22 04:03:12;;;;;;;;;;;21.60;72.00;;;;;;5002700;28;88086;-48
2023/06/22 04:05:38;;;;;;;;;;;21.60;72.00;;;;;;5003524;28;88150;-48
2023/06/22 04:08:04;;;;;;;;;;;21.60;71.90;;;;;;5008434;28;88577;-47
2023/06/22 04:10:30;;;;;;;;;;;21.60;72.00;;;;;;5012367;28;87154;-47
2023/06/22 04:12:56;;;;;;;;;;;21.60;72.00;;;;;;4999971;28;89232;-47
2023/06/22 04:15:21;;;;;;;;;;;21.60;72.10;;;;;;5008128;28;89183;-46
2023/06/22 04:17:47;;;;;;;;;;;21.50;72.00;;;;;;5011450;28;87116;-46
2023/06/22 04:20:12;;;;;;;;;;;21.60;72.10;;;;;;5011453;28;87386;-46
2023/06/22 04:22:38;;;;;;;;;;;21.50;71.90;;;;;;4999345;28;88832;-46
2023/06/22 04:25:05;;;;;;;;;;;21.50;72.00;;;;;;5011492;28;87285;-46
2023/06/22 04:27:31;;;;;;;;;;;21.50;72.10;;;;;;5014267;28;88064;-46
2023/06/22 04:30:00;;;;;;;;;;;21.50;72.00;;;;;;5008205;28;86437;-46
2023/06/22 04:32:25;;;;;;;;;;;21.50;72.00;;;;;;5008016;28;87134;-47
2023/06/22 04:34:52;;;;;;;;;;;21.50;71.90;;;;;;5009395;28;87674;-46
2023/06/22 04:37:17;;;;;;;;;;;21.50;71.90;;;;;;5007766;28;88089;-47
2023/06/22 04:39:43;;;;;;;;;;;21.50;72.00;;;;;;5007173;28;88160;-46
2023/06/22 04:42:09;;;;;;;;;;;21.50;72.00;;;;;;4996856;28;89531;-46
2023/06/22 04:44:34;;;;;;;;;;;21.50;72.00;;;;;;5005436;28;87100;-46
2023/06/22 04:47:02;;;;;;;;;;;21.50;72.00;;;;;;5015382;28;87113;-43
2023/06/22 04:49:35;;;;;;;;;;;21.50;72.00;;;;;;5008756;28;87253;-45
2023/06/22 04:52:02;;;;;;;;;;;21.50;72.00;;;;;;5006275;28;88964;-44
2023/06/22 04:54:28;;;;;;;;;;;21.50;72.60;;;;;;5010543;28;89168;-43
2023/06/22 04:56:56;;;;;;;;;;;21.50;72.00;;;;;;5015175;28;87195;-44
2023/06/22 04:59:22;;;;;;;;;;;21.50;72.00;;;;;;5004342;28;87344;-46
2023/06/22 05:01:48;;;;;;;;;;;21.50;72.00;;;;;;5004066;28;88964;-47
2023/06/22 05:04:13;;;;;;;;;;;21.50;71.90;;;;;;5009931;28;88311;-48
2023/06/22 05:06:39;;;;;;;;;;;21.50;72.70;;;;;;5011395;28;87266;-46
2023/06/22 05:09:05;;;;;;;;;;;21.50;72.00;;;;;;5004928;28;88017;-47
2023/06/22 05:11:30;;;;;;;;;;;21.50;72.00;;;;;;5008992;28;89342;-46
2023/06/22 05:13:56;;;;;;;;;;;21.50;72.00;;;;;;5012094;28;88208;-46
2023/06/22 05:16:23;;;;;;;;;;;21.50;72.00;;;;;;5009042;28;87223;-47
2023/06/22 05:18:53;;;;;;;;;;;21.50;72.00;;;;;;5001678;28;87361;-46
2023/06/22 05:21:28;;;;;;;;;;;21.50;72.00;;;;;;5009472;28;89610;-49
2023/06/22 05:23:53;;;;;;;;;;;21.50;72.20;;;;;;5008154;28;87104;-48
2023/06/22 05:26:20;;;;;;;;;;;21.50;72.10;;;;;;5010748;28;88198;-46
2023/06/22 05:28:46;;;;;;;;;;;21.50;72.10;;;;;;4998181;28;88769;-48
2023/06/22 05:31:15;;;;;;;;;;;21.50;72.20;;;;;;5014585;28;87138;-47
2023/06/22 05:33:44;;;;;;;;;;;21.50;72.20;;;;;;5009119;28;88368;-49
2023/06/22 05:36:10;;;;;;;;;;;21.50;72.20;;;;;;5002616;28;87283;-46
2023/06/22 05:38:36;;;;;;;;;;;21.50;72.30;;;;;;5004299;28;89107;-46
2023/06/22 05:41:01;;;;;;;;;;;21.50;72.40;;;;;;5010536;28;88019;-46
2023/06/22 05:43:27;;;;;;;;;;;21.50;72.40;;;;;;5013586;28;86562;-46
2023/06/22 05:45:52;;;;;;;;;;;21.50;72.40;;;;;;5008044;28;88236;-46
2023/06/22 05:48:18;;;;;;;;;;;21.50;73.00;;;;;;5009310;28;87842;-46
2023/06/22 05:50:43;;;;;;;;;;;21.50;72.40;;;;;;5012632;28;88315;-46
2023/06/22 05:53:09;;;;;;;;;;;21.50;72.40;;;;;;5011811;28;89445;-46
2023/06/22 05:55:34;;;;;;;;;;;21.50;72.40;;;;;;4998276;28;87904;-44
2023/06/22 05:58:00;;;;;;;;;;;21.50;72.50;;;;;;5007407;28;88262;-44
2023/06/22 06:00:25;;;;;;;;;;;21.50;72.60;;;;;;5011012;28;87980;-46
2023/06/22 06:02:51;;;;;;;;;;;21.50;72.60;;;;;;5006658;28;87108;-47
2023/06/22 06:05:17;;;;;;;;;;;21.50;72.60;;;;;;5003861;28;87691;-48
2023/06/22 06:07:43;;;;;;;;;;;21.50;72.60;;;;;;5006519;28;88511;-47
2023/06/22 06:10:09;;;;;;;;;;;21.50;72.70;;;;;;5013452;28;87189;-49
2023/06/22 06:12:35;;;;;;;;;;;21.50;72.60;;;;;;4997558;28;87047;-47
2023/06/22 06:15:00;;;;;;;;;;;21.50;72.70;;;;;;4999828;28;88093;-46
2023/06/22 06:17:26;;;;;;;;;;;21.50;72.70;;;;;;5008237;28;89156;-46
2023/06/22 06:19:52;;;;;;;;;;;21.50;72.80;;;;;;5009018;28;88135;-47
2023/06/22 06:22:18;;;;;;;;;;;21.50;72.90;;;;;;5001732;28;87175;-48
2023/06/22 06:24:45;;;;;;;;;;;21.50;72.80;;;;;;5001771;28;87474;-46
2023/06/22 06:27:11;;;;;;;;;;;21.50;72.80;;;;;;5008773;28;89278;-46
2023/06/22 06:29:36;;;;;;;;;;;21.50;72.90;;;;;;5012306;28;87188;-46
2023/06/22 06:32:02;;;;;;;;;;;21.50;72.90;;;;;;5004223;28;87490;-47
2023/06/22 06:34:27;;;;;;;;;;;21.50;73.00;;;;;;5001983;28;87297;-46
2023/06/22 06:36:53;;;;;;;;;;;21.50;72.90;;;;;;5007972;28;87446;-47
2023/06/22 06:39:18;;;;;;;;;;;21.50;73.60;;;;;;5004120;28;88464;-48
2023/06/22 06:41:44;;;;;;;;;;;21.50;73.10;;;;;;4997450;28;87250;-49
2023/06/22 06:44:09;;;;;;;;;;;21.50;73.10;;;;;;4999502;28;87584;-47
2023/06/22 06:46:35;;;;;;;;;;;21.50;73.10;;;;;;5010270;28;88035;-46
2023/06/22 06:49:00;;;;;;;;;;;21.50;73.10;;;;;;5006121;28;87820;-48
2023/06/22 06:51:26;;;;;;;;;;;21.50;73.20;;;;;;5001556;28;87318;-46
2023/06/22 06:53:51;;;;;;;;;;;21.50;73.20;;;;;;5004157;28;88647;-46
2023/06/22 06:56:17;;;;;;;;;;;21.50;73.40;;;;;;5011721;28;86391;-46
2023/06/22 06:58:42;;;;;;;;;;;21.50;73.30;;;;;;5005652;28;88814;-46
2023/06/22 07:01:08;;;;;;;;;;;21.50;73.50;;;;;;5001094;28;87542;-46
2023/06/22 07:03:34;;;;;;;;;;;21.50;73.50;;;;;;5001677;28;89335;-47
2023/06/22 07:05:59;;;;;;;;;;;21.50;73.40;;;;;;5010740;28;88032;-46
2023/06/22 07:08:25;;;;;;;;;;;21.50;73.40;;;;;;5004808;28;87314;-47
2023/06/22 07:10:51;;;;;;;;;;;21.50;74.10;;;;;;4998966;28;87462;-48
2023/06/22 07:13:17;;;;;;;;;;;21.50;73.50;;;;;;5010349;28;88943;-46
2023/06/22 07:15:42;;;;;;;;;;;21.50;73.60;;;;;;5013261;28;87175;-47
2023/06/22 07:18:08;;;;;;;;;;;21.50;73.60;;;;;;5016595;28;87889;-46
2023/06/22 07:20:34;;;;;;;;;;;21.50;73.70;;;;;;5006247;28;86411;-45
2023/06/22 07:23:00;;;;;;;;;;;21.50;73.70;;;;;;5008188;28;88108;-48
2023/06/22 07:25:25;;;;;;;;;;;21.50;73.70;;;;;;5012859;28;89306;-46
2023/06/22 07:28:01;;;;;;;;;;;21.50;73.70;;;;;;5012579;28;89276;-49
2023/06/22 07:30:27;;;;;;;;;;;21.50;73.80;;;;;;5008681;28;88379;-46
2023/06/22 07:32:53;;;;;;;;;;;21.60;73.70;;;;;;5005661;28;89275;-46
2023/06/22 07:35:18;;;;;;;;;;;21.50;73.70;;;;;;5015037;28;87067;-46
2023/06/22 07:37:44;;;;;;;;;;;21.50;73.70;;;;;;5008455;28;89131;-46
2023/06/22 07:42:54;;;;;;;;;;;21.50;73.60;;;;;;5011607;28;86959;-47
2023/06/22 07:45:20;;;;;;;;;;;21.50;73.70;;;;;;5009593;28;88541;-47
2023/06/22 07:47:45;;;;;;;;;;;21.50;73.70;;;;;;5011145;28;87205;-47
2023/06/22 07:50:11;;;;;;;;;;;21.50;73.80;;;;;;5014674;28;87558;-46
2023/06/22 07:52:37;;;;;;;;;;;21.50;73.80;;;;;;5009860;28;89064;-46
2023/06/22 07:55:02;;;;;;;;;;;21.50;73.80;;;;;;5014105;28;87415;-46
2023/06/22 07:57:33;;;;;;;;;;;21.50;73.70;;;;;;5011008;28;87359;-46
2023/06/22 07:59:59;;;;;;;;;;;21.50;73.70;;;;;;5006359;28;89192;-46
2023/06/22 08:02:25;;;;;;;;;;;21.50;73.80;;;;;;5012689;28;87864;-47
2023/06/22 08:04:51;;;;;;;;;;;21.50;73.90;;;;;;5010435;28;88062;-47
2023/06/22 08:07:18;;;;;;;;;;;21.60;74.00;;;;;;5012052;28;87169;-47
2023/06/22 08:09:46;;;;;;;;;;;21.50;73.80;;;;;;5011754;28;88759;-48
2023/06/22 08:12:12;;;;;;;;;;;21.50;73.90;;;;;;5011454;28;89050;-46
2023/06/22 08:14:38;;;;;;;;;;;21.60;73.90;;;;;;5009665;28;87104;-46
2023/06/22 08:17:03;;;;;;;;;;;21.60;73.80;;;;;;5011086;28;88142;-47
2023/06/22 08:19:29;;;;;;;;;;;21.60;73.80;;;;;;5010549;28;87905;-46
2023/06/22 08:21:54;;;;;;;;;;;21.60;73.80;;;;;;5015426;28;87090;-48
2023/06/22 08:24:20;;;;;;;;;;;21.60;73.80;;;;;;5009928;28;88766;-46
2023/06/22 08:26:45;;;;;;;;;;;21.60;73.80;;;;;;5005963;28;87132;-46
2023/06/22 08:29:11;;;;;;;;;;;21.60;73.90;;;;;;5008830;28;88044;-46
2023/06/22 08:31:36;;;;;;;;;;;21.70;73.90;;;;;;5005575;28;87635;-56
2023/06/22 08:34:02;;;;;;;;;;;21.80;73.70;;;;;;5012597;28;86418;-46
2023/06/22 08:36:32;;;;;;;;;;;21.90;74.50;;;;;;5011023;28;87067;-48
2023/06/22 08:39:01;;;;;;;;;;;22.00;75.00;;;;;;5011113;28;89965;-43
2023/06/22 08:41:27;;;;;;;;;;;22.30;76.90;;;;;;5008352;28;88044;-51
2023/06/22 08:43:52;;;;;;;;;;;22.40;76.30;;;;;;5013176;28;89608;-51
2023/06/22 08:46:22;;;;;;;;;;;22.50;76.00;;;;;;5010840;28;87180;-51
2023/06/22 08:48:47;;;;;;;;;;;22.60;77.70;;;;;;5009601;28;90266;-54
2023/06/22 08:51:13;;;;;;;;;;;22.70;78.80;;;;;;5011297;28;88202;-52
2023/06/22 08:53:39;;;;;;;;;;;22.80;76.20;;;;;;5009800;28;87102;-59
2023/06/22 08:56:05;;;;;;;;;;;22.80;74.90;;;;;;5012204;28;88796;-43
2023/06/22 08:58:30;;;;;;;;;;;22.80;75.10;;;;;;5009570;28;87335;-49
2023/06/22 09:00:56;;;;;;;;;;;22.80;75.00;;;;;;5007939;28;87377;-56
2023/06/22 09:03:21;;;;;;;;;;;22.80;74.50;;;;;;5011218;28;89211;-45
2023/06/22 09:05:47;;;;;;;;;;;22.80;74.00;;;;;;5012031;28;88079;-48
2023/06/22 09:08:12;;;;;;;;;;;22.90;73.60;;;;;;5011781;28;88438;-47
2023/06/22 09:10:38;;;;;;;;;;;22.90;73.70;;;;;;5010546;28;88240;-46
2023/06/22 09:13:03;;;;;;;;;;;23.00;74.00;;;;;;5010855;28;87066;-50
2023/06/22 09:15:29;;;;;;;;;;;23.00;74.70;;;;;;5010832;28;87560;-46
2023/06/22 09:17:54;;;;;;;;;;;23.00;75.40;;;;;;5007942;28;88071;-48
2023/06/22 09:20:20;;;;;;;;;;;23.10;76.30;;;;;;5009485;28;86899;-50
2023/06/22 09:22:46;;;;;;;;;;;23.20;76.20;;;;;;5013351;28;87917;-49
2023/06/22 09:25:12;;;;;;;;;;;23.30;75.50;;;;;;5004706;28;89640;-53
2023/06/22 09:27:37;;;;;;;;;;;23.30;76.10;;;;;;5015208;28;87599;-52
2023/06/22 09:30:03;;;;;;;;;;;23.30;75.70;;;;;;5008223;28;88746;-47
2023/06/22 09:32:29;;;;;;;;;;;23.30;75.50;;;;;;5004493;28;87548;-47
2023/06/22 09:34:55;;;;;;;;;;;23.20;74.40;;;;;;5010804;28;88898;-47
2023/06/22 09:37:20;;;;;;;;;;;23.20;73.30;;;;;;5010122;28;89843;-48
2023/06/22 09:39:46;;;;;;;;;;;23.20;75.00;;;;;;5009257;28;87161;-47
2023/06/22 09:42:13;;;;;;;;;;;23.30;74.00;;;;;;5011016;28;89004;-45
2023/06/22 09:44:38;;;;;;;;;;;23.20;75.70;;;;;;5009573;28;89451;-46
2023/06/22 09:47:04;;;;;;;;;;;23.10;75.90;;;;;;5009224;28;86418;-46
2023/06/22 09:49:30;;;;;;;;;;;23.10;75.70;;;;;;5011074;28;87950;-45
2023/06/22 09:51:56;;;;;;;;;;;23.20;75.40;;;;;;5012212;28;87141;-45
2023/06/22 09:54:21;;;;;;;;;;;23.20;75.20;;;;;;5008443;28;88308;-46
2023/06/22 09:56:47;;;;;;;;;;;23.10;75.20;;;;;;5011184;28;88935;-45
2023/06/22 09:59:12;;;;;;;;;;;23.10;75.00;;;;;;5009415;28;87482;-45
2023/06/22 10:01:37;;;;;;;;;;;23.10;75.10;;;;;;5008037;28;87204;-45
2023/06/22 10:04:03;;;;;;;;;;;23.10;75.00;;;;;;5008104;28;87730;-43
2023/06/22 10:06:28;;;;;;;;;;;23.10;75.10;;;;;;5011335;28;87278;-45
2023/06/22 10:08:54;;;;;;;;;;;23.10;75.00;;;;;;5011741;28;87445;-42
2023/06/22 10:11:20;;;;;;;;;;;23.10;74.90;;;;;;5012234;28;86761;-42
2023/06/22 10:13:45;;;;;;;;;;;23.00;74.90;;;;;;5008202;28;87990;-44
2023/06/22 10:16:11;;;;;;;;;;;23.00;75.00;;;;;;5005181;28;87555;-42
2023/06/22 10:18:36;;;;;;;;;;;23.00;75.00;;;;;;5006554;28;88169;-43
2023/06/22 10:21:02;;;;;;;;;;;23.00;74.90;;;;;;5008839;28;88392;-43
2023/06/22 10:23:27;;;;;;;;;;;23.00;74.80;;;;;;5010602;28;87036;-43
2023/06/22 10:25:53;;;;;;;;;;;23.00;74.80;;;;;;5010078;28;87366;-42
2023/06/22 10:28:18;;;;;;;;;;;23.00;74.80;;;;;;5009894;28;87505;-43
2023/06/22 10:30:44;;;;;;;;;;;23.00;74.70;;;;;;5010232;28;88256;-42
2023/06/22 10:33:10;;;;;;;;;;;22.90;74.60;;;;;;5008882;28;88465;-43
2023/06/22 10:35:37;;;;;;;;;;;23.00;74.90;;;;;;5011225;28;88514;-42
2023/06/22 10:38:03;;;;;;;;;;;23.00;74.70;;;;;;5008095;28;87601;-44
2023/06/22 10:40:29;;;;;;;;;;;23.00;74.60;;;;;;5011820;28;87575;-43
2023/06/22 10:42:54;;;;;;;;;;;23.00;75.20;;;;;;5007287;28;89144;-43
2023/06/22 10:45:20;;;;;;;;;;;23.00;74.60;;;;;;5006081;28;87216;-43
2023/06/22 10:47:45;;;;;;;;;;;23.00;74.50;;;;;;5011351;28;87848;-44
2023/06/22 10:50:11;;;;;;;;;;;23.00;74.50;;;;;;5012700;28;88568;-45
2023/06/22 10:52:37;;;;;;;;;;;23.00;74.50;;;;;;5016170;28;87023;-43
2023/06/22 10:55:02;;;;;;;;;;;23.00;74.50;;;;;;5013731;28;88183;-43
2023/06/22 10:57:28;;;;;;;;;;;23.00;74.40;;;;;;5012817;28;87462;-44
2023/06/22 10:59:53;;;;;;;;;;;23.00;74.40;;;;;;5012013;28;88054;-43
2023/06/22 11:02:19;;;;;;;;;;;23.00;74.40;;;;;;5014146;28;88236;-43
2023/06/22 11:04:45;;;;;;;;;;;23.00;74.40;;;;;;5011773;28;87250;-43
2023/06/22 11:07:11;;;;;;;;;;;23.10;74.40;;;;;;5006830;28;89288;-42
2023/06/22 11:09:38;;;;;;;;;;;23.10;74.40;;;;;;5014128;28;88007;-44
2023/06/22 11:12:03;;;;;;;;;;;23.10;74.40;;;;;;5011826;28;87634;-42
2023/06/22 11:14:29;;;;;;;;;;;23.10;74.40;;;;;;5015866;28;87862;-43
2023/06/22 11:16:56;;;;;;;;;;;23.10;74.40;;;;;;5010875;28;87093;-42
2023/06/22 11:19:21;;;;;;;;;;;23.10;74.30;;;;;;5011195;28;87963;-43
2023/06/22 11:21:47;;;;;;;;;;;23.10;74.20;;;;;;5012503;28;89847;-43
2023/06/22 11:24:12;;;;;;;;;;;23.10;74.30;;;;;;5012733;28;86355;-44
2023/06/22 11:26:38;;;;;;;;;;;23.20;74.30;;;;;;5013647;28;88268;-43
2023/06/22 11:29:06;;;;;;;;;;;23.20;74.30;;;;;;5010575;28;88016;-45
2023/06/22 11:31:32;;;;;;;;;;;23.20;74.30;;;;;;5012459;28;88109;-43
2023/06/22 11:33:57;;;;;;;;;;;23.20;74.20;;;;;;5009745;28;89853;-43
2023/06/22 11:36:23;;;;;;;;;;;23.20;74.10;;;;;;5016876;28;88185;-43
2023/06/22 11:38:48;;;;;;;;;;;23.20;74.10;;;;;;5010622;28;87527;-43
2023/06/22 11:41:14;;;;;;;;;;;23.30;72.20;;;;;;5009216;28;89383;-41
2023/06/22 11:43:39;;;;;;;;;;;23.40;72.90;;;;;;5012372;28;87557;-43
2023/06/22 11:46:05;;;;;;;;;;;23.40;71.80;;;;;;5011538;28;87437;-46
2023/06/22 11:48:31;;;;;;;;;;;23.30;74.60;;;;;;5011716;28;86908;-47
2023/06/22 11:50:56;;;;;;;;;;;23.40;75.80;;;;;;5012820;28;87725;-46
2023/06/22 11:53:24;;;;;;;;;;;23.40;75.50;;;;;;5009918;28;88676;-44
2023/06/22 11:55:49;;;;;;;;;;;23.50;75.50;;;;;;5012433;28;89147;-44
2023/06/22 11:58:14;;;;;;;;;;;23.60;75.50;;;;;;5011728;28;87594;-47
2023/06/22 12:00:41;;;;;;;;;;;23.70;75.40;;;;;;5012700;28;88124;-46
2023/06/22 12:03:07;;;;;;;;;;;23.70;75.30;;;;;;5010575;28;87223;-46
2023/06/22 12:05:32;;;;;;;;;;;23.80;72.40;;;;;;5009852;28;87463;-47
2023/06/22 12:07:58;;;;;;;;;;;23.70;73.10;;;;;;5012960;28;89009;-43
2023/06/22 12:10:25;;;;;;;;;;;23.70;74.00;;;;;;5013029;28;87179;-43
2023/06/22 12:12:50;;;;;;;;;;;23.70;74.50;;;;;;5014379;28;87896;-48
2023/06/22 12:15:16;;;;;;;;;;;23.80;74.70;;;;;;5013464;28;88151;-46
2023/06/22 12:17:41;;;;;;;;;;;24.00;74.60;;;;;;5015743;28;87106;-44
2023/06/22 12:20:07;;;;;;;;;;;24.10;74.30;;;;;;5007849;28;89013;-46
2023/06/22 12:22:33;;;;;;;;;;;24.00;74.40;;;;;;5010246;28;87494;-45
2023/06/22 12:24:59;;;;;;;;;;;24.00;74.50;;;;;;5013449;28;87796;-54
2023/06/22 12:27:25;;;;;;;;;;;24.00;74.40;;;;;;5009600;28;87911;-51
2023/06/22 12:29:51;;;;;;;;;;;24.00;72.50;;;;;;5013408;28;87448;-47
2023/06/22 12:32:16;;;;;;;;;;;23.90;70.70;;;;;;5009544;28;87445;-50
2023/06/22 12:34:42;;;;;;;;;;;23.80;69.70;;;;;;5009058;28;87680;-51
2023/06/22 12:37:08;;;;;;;;;;;23.80;69.90;;;;;;5012380;28;86494;-46
2023/06/22 12:39:33;;;;;;;;;;;23.90;69.50;;;;;;5013756;28;87151;-46
2023/06/22 12:41:59;;;;;;;;;;;24.00;70.30;;;;;;5010812;28;87083;-50
2023/06/22 12:44:24;;;;;;;;;;;24.00;70.70;;;;;;5011576;28;87980;-43
2023/06/22 12:46:50;;;;;;;;;;;24.10;69.80;;;;;;5009411;28;87866;-52
2023/06/22 12:49:15;;;;;;;;;;;24.10;71.00;;;;;;5008568;28;87133;-45
2023/06/22 12:51:42;;;;;;;;;;;24.10;71.00;;;;;;5013215;28;87512;-49
2023/06/22 12:54:07;;;;;;;;;;;24.10;71.30;;;;;;5009030;28;89500;-50
2023/06/22 12:56:33;;;;;;;;;;;24.10;71.70;;;;;;5012536;28;87249;-48
2023/06/22 12:59:01;;;;;;;;;;;24.20;71.60;;;;;;5010321;28;87097;-44
2023/06/22 13:01:27;;;;;;;;;;;24.20;71.80;;;;;;5013953;28;87419;-46
2023/06/22 13:03:52;;;;;;;;;;;24.20;72.70;;;;;;5005220;28;87102;-48
2023/06/22 13:06:18;;;;;;;;;;;24.10;73.40;;;;;;5009716;28;88118;-47
2023/06/22 13:08:43;;;;;;;;;;;24.10;73.90;;;;;;5010983;28;88014;-44
2023/06/22 13:11:09;;;;;;;;;;;24.00;73.30;;;;;;5011263;28;91394;-48
2023/06/22 13:13:34;;;;;;;;;;;24.10;73.70;;;;;;5011034;28;87145;-50
2023/06/22 13:16:00;;;;;;;;;;;24.10;73.30;;;;;;5012837;28;87296;-49
2023/06/22 13:18:25;;;;;;;;;;;24.10;73.60;;;;;;5005994;28;88757;-47
2023/06/22 13:20:54;;;;;;;;;;;24.10;73.30;;;;;;5007644;28;89140;-43
2023/06/22 13:23:20;;;;;;;;;;;24.20;72.70;;;;;;5016551;28;87102;-48
2023/06/22 13:25:45;;;;;;;;;;;24.10;72.80;;;;;;5010773;28;88906;-55
2023/06/22 13:28:13;;;;;;;;;;;24.20;73.00;;;;;;5014463;28;87046;-49
2023/06/22 13:30:39;;;;;;;;;;;24.30;72.80;;;;;;5010581;28;87456;-46
2023/06/22 13:33:04;;;;;;;;;;;24.30;72.50;;;;;;5011399;28;89189;-48
2023/06/22 13:35:30;;;;;;;;;;;24.30;72.10;;;;;;5002329;28;87372;-55
2023/06/22 13:37:55;;;;;;;;;;;24.30;72.50;;;;;;5010557;28;87362;-51
2023/06/22 13:40:21;;;;;;;;;;;24.40;72.30;;;;;;5012843;28;88529;-51
2023/06/22 13:42:47;;;;;;;;;;;24.40;72.90;;;;;;5009462;28;87127;-47
2023/06/22 13:45:12;;;;;;;;;;;24.40;73.30;;;;;;5014078;28;88457;-49
2023/06/22 13:47:38;;;;;;;;;;;24.40;73.20;;;;;;5009595;28;87145;-42
2023/06/22 13:50:03;;;;;;;;;;;24.40;73.10;;;;;;5007387;28;87922;-49
2023/06/22 13:52:29;;;;;;;;;;;24.30;73.50;;;;;;5008861;28;88149;-47
2023/06/22 13:54:54;;;;;;;;;;;24.40;72.70;;;;;;5009822;28;87023;-50
2023/06/22 13:57:20;;;;;;;;;;;24.30;73.00;;;;;;5009758;28;87946;-47
2023/06/22 13:59:46;;;;;;;;;;;24.40;72.90;;;;;;5007447;28;88051;-45
2023/06/22 14:02:11;;;;;;;;;;;24.30;72.50;;;;;;5011068;28;87172;-42
2023/06/22 14:04:36;;;;;;;;;;;24.30;72.20;;;;;;5012222;28;87559;-47
2023/06/22 14:07:02;;;;;;;;;;;24.30;72.60;;;;;;5007984;28;88278;-42
2023/06/22 14:09:28;;;;;;;;;;;24.40;72.90;;;;;;5011881;28;87582;-43
2023/06/22 14:11:54;;;;;;;;;;;24.40;72.60;;;;;;5008654;28;87894;-42